Time;durP1;ratioP1;P1;durP2;ratioP2;P2;SDS_P1;SDS_P2;PMS_P1;PMS_P2;Temp;Humidity;BMP_temperature;BMP_pressure;BME280_temperature;BME280_humidity;BME280_pressure;Samples;Min_cycle;Max_cycle;Signal;HPM_P1;HPM_P2
2022/04/02 00:00:28;;;;;;;1.30;0.40;;;4.90;63.30;;;;;;6062964;23;20492;-80
2022/04/02 00:02:56;;;;;;;0.60;0.40;;;4.90;62.30;;;;;;6062893;23;20387;-79
2022/04/02 00:05:25;;;;;;;0.70;0.40;;;5.10;61.40;;;;;;6063687;23;20717;-78
2022/04/02 00:07:52;;;;;;;0.90;0.50;;;5.00;62.20;;;;;;6063513;23;20383;-79
2022/04/02 00:10:19;;;;;;;1.27;0.50;;;5.10;61.40;;;;;;6049149;23;20450;-80
2022/04/02 00:12:46;;;;;;;1.40;0.50;;;5.10;61.50;;;;;;6039786;23;20379;-80
2022/04/02 00:15:13;;;;;;;1.10;0.50;;;5.10;61.60;;;;;;6048880;23;20379;-80
2022/04/02 00:17:40;;;;;;;0.98;0.30;;;5.10;61.40;;;;;;6062989;23;20446;-79
2022/04/02 00:20:07;;;;;;;0.90;0.40;;;5.10;61.10;;;;;;6048654;23;20416;-81
2022/04/02 00:22:34;;;;;;;0.45;0.40;;;5.10;61.40;;;;;;6086249;23;20383;-81
2022/04/02 00:25:04;;;;;;;0.60;0.40;;;5.00;62.20;;;;;;6063902;23;20438;-80
2022/04/02 00:27:31;;;;;;;0.50;0.40;;;4.90;61.70;;;;;;6061770;23;20391;-81
2022/04/02 00:29:58;;;;;;;0.45;0.40;;;5.10;60.60;;;;;;6063643;23;20387;-79
2022/04/02 00:32:25;;;;;;;0.77;0.70;;;5.20;60.60;;;;;;6062092;23;20387;-78
2022/04/02 00:34:53;;;;;;;0.52;0.43;;;5.10;61.10;;;;;;6063399;23;20450;-78
2022/04/02 00:37:20;;;;;;;1.30;0.40;;;5.20;59.80;;;;;;6062791;23;20387;-78
2022/04/02 00:39:47;;;;;;;0.47;0.47;;;5.30;59.80;;;;;;6062879;23;20379;-78
2022/04/02 00:42:14;;;;;;;0.53;0.40;;;5.20;59.60;;;;;;6063519;23;20394;-78
2022/04/02 00:44:41;;;;;;;0.80;0.40;;;5.30;58.90;;;;;;6062785;23;20375;-79
2022/04/02 00:47:08;;;;;;;0.90;0.40;;;5.30;59.20;;;;;;6062561;23;20426;-81
2022/04/02 00:49:35;;;;;;;0.50;0.43;;;5.20;59.30;;;;;;6063740;23;20430;-78
2022/04/02 00:52:02;;;;;;;0.40;0.40;;;5.30;58.60;;;;;;6065356;23;20433;-81
2022/04/02 00:54:30;;;;;;;0.73;0.40;;;5.30;58.50;;;;;;6064560;23;20958;-79
2022/04/02 00:56:57;;;;;;;1.30;0.40;;;5.40;59.00;;;;;;6066398;23;20402;-80
2022/04/02 00:59:25;;;;;;;0.95;0.30;;;5.30;58.70;;;;;;6064758;23;20391;-78
2022/04/02 01:01:51;;;;;;;0.30;0.30;;;5.30;58.40;;;;;;6041409;23;20926;-80
2022/04/02 01:04:19;;;;;;;0.50;0.40;;;5.40;57.90;;;;;;6064782;23;20407;-78
2022/04/02 01:06:46;;;;;;;0.50;0.30;;;5.50;57.80;;;;;;6063462;23;20407;-80
2022/04/02 01:09:15;;;;;;;0.57;0.35;;;5.40;58.50;;;;;;6065263;23;20383;-79
2022/04/02 01:11:48;;;;;;;0.40;0.40;;;5.40;58.00;;;;;;6063481;23;20383;-80
2022/04/02 01:14:15;;;;;;;0.40;0.40;;;5.40;58.60;;;;;;6065098;23;20737;-78
2022/04/02 01:16:42;;;;;;;0.40;0.30;;;5.50;58.00;;;;;;6063877;23;20387;-80
2022/04/02 01:19:09;;;;;;;0.60;0.40;;;5.40;58.50;;;;;;6064685;23;20526;-79
2022/04/02 01:21:37;;;;;;;0.75;0.43;;;5.50;58.40;;;;;;6064219;23;20419;-79
2022/04/02 01:24:04;;;;;;;1.35;0.40;;;5.40;58.50;;;;;;6064404;23;20438;-80
2022/04/02 01:26:31;;;;;;;0.50;0.50;;;5.30;59.20;;;;;;6062235;23;20395;-80
2022/04/02 01:29:00;;;;;;;0.52;0.40;;;5.40;59.50;;;;;;6017013;23;20379;-79
2022/04/02 01:31:28;;;;;;;0.55;0.43;;;5.40;59.60;;;;;;6063845;23;20903;-78
2022/04/02 01:33:55;;;;;;;0.85;0.40;;;5.40;59.00;;;;;;6065040;23;20430;-78
2022/04/02 01:36:22;;;;;;;0.52;0.40;;;5.40;58.80;;;;;;6064463;23;20422;-78
2022/04/02 01:38:50;;;;;;;0.70;0.50;;;5.40;58.60;;;;;;6063950;23;20375;-79
2022/04/02 01:41:18;;;;;;;0.80;0.40;;;5.50;58.30;;;;;;6065908;23;20391;-78
2022/04/02 01:43:45;;;;;;;0.88;0.50;;;5.50;58.00;;;;;;6063954;23;20451;-78
2022/04/02 01:46:13;;;;;;;0.63;0.40;;;5.40;59.00;;;;;;6065579;23;20768;-80
2022/04/02 01:48:40;;;;;;;0.50;0.40;;;5.30;59.30;;;;;;6063500;23;20395;-78
2022/04/02 01:51:07;;;;;;;2.00;0.50;;;5.50;59.20;;;;;;6066054;23;20383;-78
2022/04/02 01:53:34;;;;;;;0.70;0.40;;;5.50;59.60;;;;;;6064078;23;20883;-78
2022/04/02 01:56:01;;;;;;;0.60;0.40;;;5.40;60.00;;;;;;6064656;23;20847;-80
2022/04/02 01:58:28;;;;;;;0.55;0.45;;;5.40;59.80;;;;;;6063978;23;20406;-80
2022/04/02 02:00:55;;;;;;;0.40;0.40;;;5.40;60.10;;;;;;6065310;23;20708;-80
2022/04/02 02:03:23;;;;;;;0.40;0.40;;;5.30;60.00;;;;;;6064043;23;20851;-80
2022/04/02 02:05:50;;;;;;;0.50;0.40;;;5.30;60.60;;;;;;6063924;23;20375;-78
2022/04/02 02:08:17;;;;;;;0.80;0.40;;;5.30;60.80;;;;;;6064469;23;20383;-79
2022/04/02 02:10:44;;;;;;;2.20;0.50;;;5.20;61.40;;;;;;6062896;23;20415;-77
2022/04/02 02:13:11;;;;;;;0.60;0.50;;;5.20;61.80;;;;;;6065193;23;20379;-79
2022/04/02 02:15:38;;;;;;;1.30;0.40;;;5.10;61.80;;;;;;6064842;23;20383;-78
2022/04/02 02:18:06;;;;;;;0.95;0.40;;;5.10;62.00;;;;;;6064317;23;20406;-79
2022/04/02 02:20:33;;;;;;;0.67;0.50;;;5.10;62.10;;;;;;6063364;23;20395;-80
2022/04/02 02:23:00;;;;;;;0.47;0.40;;;5.20;60.80;;;;;;6064297;23;20855;-79
2022/04/02 02:25:27;;;;;;;0.45;0.45;;;5.20;60.40;;;;;;6064004;23;20859;-79
2022/04/02 02:27:54;;;;;;;0.40;0.40;;;5.20;60.90;;;;;;6063123;23;20382;-80
2022/04/02 02:30:21;;;;;;;0.63;0.40;;;5.20;60.50;;;;;;6063663;23;20394;-77
2022/04/02 02:32:48;;;;;;;0.85;0.43;;;5.10;61.00;;;;;;6063094;23;20387;-79
2022/04/02 02:38:10;;;;;;;0.50;0.40;;;5.20;60.40;;;;;;6065343;23;20973;-78
2022/04/02 02:40:38;;;;;;;0.40;0.40;;;5.30;59.50;;;;;;6063272;23;20463;-78
2022/04/02 02:43:07;;;;;;;1.13;0.40;;;5.40;58.60;;;;;;6063985;23;20383;-78
2022/04/02 02:45:34;;;;;;;0.35;0.35;;;5.40;59.40;;;;;;6064259;23;20383;-77
2022/04/02 02:48:03;;;;;;;0.73;0.40;;;5.30;58.60;;;;;;6063294;23;20373;-77
2022/04/02 02:50:33;;;;;;;0.70;0.40;;;5.40;59.00;;;;;;6063363;23;20451;-80
2022/04/02 02:53:00;;;;;;;0.50;0.30;;;5.40;58.90;;;;;;6063312;23;20422;-76
2022/04/02 02:55:28;;;;;;;0.45;0.30;;;5.30;59.50;;;;;;6063941;23;20864;-78
2022/04/02 02:57:56;;;;;;;1.00;0.30;;;5.40;59.40;;;;;;6063347;23;20385;-80
2022/04/02 03:00:23;;;;;;;0.95;0.30;;;5.40;58.90;;;;;;6063554;23;20390;-79
2022/04/02 03:02:50;;;;;;;0.50;0.38;;;5.50;58.40;;;;;;6063173;23;20741;-77
2022/04/02 03:05:18;;;;;;;0.30;0.30;;;5.40;58.80;;;;;;6062785;23;20387;-80
2022/04/02 03:07:50;;;;;;;1.70;0.40;;;5.30;59.30;;;;;;6039054;23;20383;-80
2022/04/02 03:10:22;;;;;;;0.57;0.40;;;5.40;59.50;;;;;;6064876;23;20720;-77
2022/04/02 03:12:51;;;;;;;0.40;0.30;;;5.30;60.00;;;;;;6062278;23;20407;-78
2022/04/02 03:15:19;;;;;;;0.90;0.40;;;5.30;59.90;;;;;;6040350;23;20379;-80
2022/04/02 03:17:47;;;;;;;0.60;0.40;;;5.30;60.30;;;;;;6038816;23;20420;-78
2022/04/02 03:20:17;;;;;;;0.32;0.32;;;5.20;61.30;;;;;;6051456;23;20387;-77
2022/04/02 03:22:45;;;;;;;0.60;0.40;;;5.20;61.40;;;;;;6062790;23;20387;-78
2022/04/02 03:25:14;;;;;;;1.40;0.40;;;5.20;60.90;;;;;;6063381;23;20386;-78
2022/04/02 03:27:43;;;;;;;0.40;0.40;;;5.20;61.40;;;;;;6063562;23;20411;-77
2022/04/02 03:30:14;;;;;;;1.70;0.50;;;5.20;60.20;;;;;;6063876;23;21690;-79
2022/04/02 03:32:42;;;;;;;0.57;0.40;;;5.30;60.10;;;;;;6063211;23;20387;-80
2022/04/02 03:35:09;;;;;;;0.47;0.35;;;5.30;60.50;;;;;;6039031;23;20371;-80
2022/04/02 03:37:37;;;;;;;1.30;0.30;;;5.30;60.20;;;;;;6063350;23;20870;-79
2022/04/02 03:40:07;;;;;;;0.50;0.40;;;5.30;60.60;;;;;;6061699;23;20927;-78
2022/04/02 03:42:38;;;;;;;0.40;0.30;;;5.30;60.10;;;;;;6063382;23;20434;-80
2022/04/02 03:45:06;;;;;;;0.50;0.40;;;5.30;59.60;;;;;;6004703;23;20720;-80
2022/04/02 03:47:33;;;;;;;0.90;0.40;;;5.30;59.40;;;;;;6064344;23;20712;-77
2022/04/02 03:50:02;;;;;;;0.77;0.50;;;5.30;59.30;;;;;;6062291;23;20383;-80
2022/04/02 03:52:29;;;;;;;1.13;0.40;;;5.40;58.90;;;;;;6064181;23;20378;-77
2022/04/02 03:54:56;;;;;;;0.50;0.30;;;5.50;58.40;;;;;;6038829;23;20790;-78
2022/04/02 03:57:24;;;;;;;0.90;0.40;;;5.40;58.50;;;;;;6039353;23;20379;-77
2022/04/02 03:59:51;;;;;;;0.60;0.30;;;5.50;58.50;;;;;;6063190;23;20410;-80
2022/04/02 04:02:18;;;;;;;0.30;0.30;;;5.40;58.90;;;;;;6038448;23;20379;-77
2022/04/02 04:04:46;;;;;;;0.60;0.40;;;5.40;58.50;;;;;;6065112;23;20387;-77
2022/04/02 04:07:14;;;;;;;0.68;0.30;;;5.60;57.90;;;;;;6061479;23;20380;-80
2022/04/02 04:09:41;;;;;;;1.30;0.30;;;5.60;58.20;;;;;;6039726;23;20379;-79
2022/04/02 04:12:10;;;;;;;0.80;0.30;;;5.50;57.60;;;;;;6038673;23;20383;-78
2022/04/02 04:14:37;;;;;;;0.47;0.40;;;5.50;57.70;;;;;;6056926;23;20394;-80
2022/04/02 04:17:04;;;;;;;0.40;0.30;;;5.50;57.70;;;;;;6026618;23;20442;-79
2022/04/02 04:19:31;;;;;;;0.50;0.30;;;5.50;57.90;;;;;;6038555;23;20402;-78
2022/04/02 04:22:02;;;;;;;0.50;0.40;;;5.60;58.00;;;;;;6027501;23;20387;-79
2022/04/02 04:24:30;;;;;;;0.68;0.47;;;5.50;57.70;;;;;;6060660;23;20828;-78
2022/04/02 04:26:59;;;;;;;0.30;0.30;;;5.70;57.20;;;;;;6065216;23;20393;-80
2022/04/02 04:29:26;;;;;;;1.20;0.35;;;5.60;57.10;;;;;;6062058;23;20388;-80
2022/04/02 04:31:52;;;;;;;0.40;0.40;;;5.60;57.10;;;;;;6039238;23;20379;-77
2022/04/02 04:34:20;;;;;;;1.40;0.30;;;5.60;56.60;;;;;;6063212;23;20919;-77
2022/04/02 04:36:48;;;;;;;0.45;0.40;;;5.60;56.90;;;;;;6064232;23;20863;-79
2022/04/02 04:39:15;;;;;;;0.50;0.32;;;5.80;56.10;;;;;;6038679;23;20386;-79
2022/04/02 04:41:42;;;;;;;0.40;0.40;;;5.70;56.70;;;;;;6062826;23;20768;-78
2022/04/02 04:44:09;;;;;;;1.15;0.40;;;5.70;56.70;;;;;;6063832;23;20379;-78
2022/04/02 04:46:37;;;;;;;0.30;0.30;;;5.70;55.80;;;;;;6039046;23;20427;-78
2022/04/02 04:49:04;;;;;;;0.45;0.30;;;5.80;55.50;;;;;;6016267;23;20467;-80
2022/04/02 04:51:31;;;;;;;0.55;0.40;;;5.90;55.00;;;;;;6062954;23;20382;-80
2022/04/02 04:53:58;;;;;;;0.40;0.30;;;6.00;54.60;;;;;;6062561;23;20383;-80
2022/04/02 04:56:31;;;;;;;0.60;0.40;;;6.00;55.10;;;;;;6062396;23;20410;-77
2022/04/02 04:58:57;;;;;;;0.98;0.40;;;6.00;55.20;;;;;;6063540;23;20379;-77
2022/04/02 05:01:24;;;;;;;0.40;0.30;;;6.00;54.90;;;;;;6062256;23;20383;-77
2022/04/02 05:03:52;;;;;;;0.40;0.40;;;6.00;54.70;;;;;;6039845;23;20911;-80
2022/04/02 05:06:20;;;;;;;0.55;0.30;;;6.00;54.70;;;;;;6062365;23;20387;-78
2022/04/02 05:08:47;;;;;;;0.52;0.43;;;5.90;54.70;;;;;;6063188;23;21080;-80
2022/04/02 05:11:15;;;;;;;0.43;0.32;;;6.00;54.50;;;;;;6061847;23;20438;-79
2022/04/02 05:13:43;;;;;;;0.50;0.40;;;6.10;53.40;;;;;;6063303;23;20449;-80
2022/04/02 05:16:11;;;;;;;0.77;0.30;;;6.10;53.20;;;;;;6061840;23;20379;-80
2022/04/02 05:18:39;;;;;;;0.88;0.60;;;6.20;52.60;;;;;;6062696;23;20407;-79
2022/04/02 05:21:06;;;;;;;1.05;0.40;;;6.10;53.30;;;;;;6062394;23;20391;-77
2022/04/02 05:23:39;;;;;;;0.88;0.50;;;6.10;52.90;;;;;;6062001;23;20891;-78
2022/04/02 05:26:06;;;;;;;0.68;0.38;;;6.20;52.80;;;;;;6063133;23;20720;-78
2022/04/02 05:28:32;;;;;;;0.50;0.40;;;6.20;52.00;;;;;;6061815;23;20387;-77
2022/04/02 05:30:59;;;;;;;0.85;0.50;;;6.30;51.70;;;;;;6064226;23;20725;-79
2022/04/02 05:33:26;;;;;;;1.30;0.37;;;6.40;50.80;;;;;;6014101;23;20451;-78
2022/04/02 05:36:06;;;;;;;0.88;0.30;;;6.40;51.00;;;;;;6042544;23;20768;-78
2022/04/02 05:38:33;;;;;;;0.50;0.30;;;6.40;52.00;;;;;;6039942;23;20764;-79
2022/04/02 05:41:00;;;;;;;0.68;0.40;;;6.30;52.30;;;;;;6040961;23;20391;-79
2022/04/02 05:43:28;;;;;;;0.30;0.30;;;6.30;52.20;;;;;;6039868;23;20391;-78
2022/04/02 05:45:55;;;;;;;0.32;0.30;;;6.20;52.50;;;;;;6041221;23;20434;-79
2022/04/02 05:48:22;;;;;;;0.40;0.38;;;6.20;52.50;;;;;;6039668;23;21121;-79
2022/04/02 05:50:49;;;;;;;0.88;0.60;;;6.30;52.30;;;;;;6041022;23;20862;-79
2022/04/02 05:53:17;;;;;;;0.75;0.65;;;6.30;51.90;;;;;;6039374;23;20387;-78
2022/04/02 05:55:44;;;;;;;1.15;0.45;;;6.30;52.50;;;;;;6040634;23;20407;-77
2022/04/02 05:58:12;;;;;;;0.50;0.40;;;6.40;51.60;;;;;;6064051;23;20840;-77
2022/04/02 06:00:40;;;;;;;0.50;0.40;;;6.40;51.10;;;;;;6039378;23;20454;-77
2022/04/02 06:03:07;;;;;;;0.50;0.40;;;6.40;51.80;;;;;;6065664;23;20391;-79
2022/04/02 06:05:35;;;;;;;0.38;0.38;;;6.50;50.50;;;;;;6063280;23;20383;-80
2022/04/02 06:08:02;;;;;;;0.63;0.33;;;6.50;50.00;;;;;;6040750;23;20383;-77
2022/04/02 06:10:29;;;;;;;1.30;0.30;;;6.50;50.10;;;;;;6039459;23;20708;-79
2022/04/02 06:12:55;;;;;;;0.63;0.40;;;6.60;50.10;;;;;;6040889;23;20450;-79
2022/04/02 06:15:24;;;;;;;0.50;0.40;;;6.60;49.60;;;;;;6063982;23;20922;-80
2022/04/02 06:17:51;;;;;;;0.57;0.32;;;6.60;49.80;;;;;;6039911;23;20934;-77
2022/04/02 06:20:19;;;;;;;0.40;0.30;;;6.60;49.60;;;;;;6063084;23;20387;-78
2022/04/02 06:22:45;;;;;;;0.63;0.40;;;6.60;49.60;;;;;;6040018;23;20379;-80
2022/04/02 06:25:12;;;;;;;0.80;0.40;;;6.60;49.10;;;;;;6040698;23;20383;-80
2022/04/02 06:27:43;;;;;;;1.35;0.45;;;6.60;49.50;;;;;;6040119;23;20376;-77
2022/04/02 06:30:13;;;;;;;0.65;0.40;;;6.60;49.90;;;;;;6064334;23;20772;-79
2022/04/02 06:32:40;;;;;;;0.63;0.47;;;6.60;49.60;;;;;;6063669;23;20447;-77
2022/04/02 06:35:08;;;;;;;0.60;0.40;;;6.70;49.60;;;;;;6064228;23;20394;-79
2022/04/02 06:37:37;;;;;;;0.50;0.32;;;6.80;48.70;;;;;;6062866;23;20379;-79
2022/04/02 06:40:09;;;;;;;0.85;0.40;;;6.80;48.40;;;;;;6063601;23;20837;-77
2022/04/02 06:42:37;;;;;;;0.50;0.40;;;6.80;48.50;;;;;;6063360;23;20860;-80
2022/04/02 06:45:04;;;;;;;0.40;0.40;;;6.80;49.70;;;;;;6063406;23;20375;-77
2022/04/02 06:47:33;;;;;;;0.90;0.50;;;6.80;48.40;;;;;;6063112;23;20387;-80
2022/04/02 06:50:04;;;;;;;0.60;0.40;;;6.90;48.50;;;;;;6063345;23;20414;-80
2022/04/02 06:52:32;;;;;;;0.82;0.40;;;7.00;48.30;;;;;;6063309;23;20391;-77
2022/04/02 06:54:59;;;;;;;0.85;0.40;;;6.90;49.20;;;;;;6064461;23;20434;-77
2022/04/02 06:57:28;;;;;;;1.30;0.50;;;7.00;48.90;;;;;;6063360;23;20497;-77
2022/04/02 06:59:56;;;;;;;0.68;0.60;;;7.00;48.90;;;;;;6065384;23;20379;-80
2022/04/02 07:02:23;;;;;;;1.70;0.50;;;6.90;50.00;;;;;;6062523;23;20907;-79
2022/04/02 07:04:50;;;;;;;1.25;0.50;;;6.90;55.10;;;;;;6064152;23;20375;-77
2022/04/02 07:07:17;;;;;;;0.95;0.50;;;6.80;59.90;;;;;;6064526;23;20383;-80
2022/04/02 07:09:43;;;;;;;1.23;0.40;;;6.70;59.00;;;;;;6063706;23;20367;-77
2022/04/02 07:12:11;;;;;;;1.00;0.50;;;6.70;62.00;;;;;;6063496;23;20387;-79
2022/04/02 07:14:38;;;;;;;0.65;0.45;;;6.70;64.60;;;;;;6063100;23;20409;-77
2022/04/02 07:17:06;;;;;;;0.90;0.40;;;6.50;64.00;;;;;;6064733;23;20711;-77
2022/04/02 07:19:36;;;;;;;0.73;0.43;;;6.50;66.00;;;;;;6062443;23;20379;-77
2022/04/02 07:22:09;;;;;;;0.85;0.50;;;6.50;68.60;;;;;;6064674;23;20450;-79
2022/04/02 07:24:40;;;;;;;0.77;0.40;;;6.40;69.90;;;;;;6062967;23;20451;-77
2022/04/02 07:27:07;;;;;;;0.60;0.40;;;6.40;70.60;;;;;;6063537;23;20402;-77
2022/04/02 07:29:34;;;;;;;1.50;0.80;;;6.40;71.00;;;;;;6062879;23;20864;-80
2022/04/02 07:32:02;;;;;;;0.95;0.38;;;6.30;68.60;;;;;;6063609;23;20383;-79
2022/04/02 07:34:32;;;;;;;0.60;0.40;;;6.30;67.90;;;;;;6062656;23;20382;-76
2022/04/02 07:37:20;;;;;;;0.93;0.50;;;6.20;67.50;;;;;;6063328;23;20383;-79
2022/04/02 07:40:01;;;;;;;3.42;2.80;;;6.10;68.00;;;;;;6062635;23;20815;-80
2022/04/02 07:42:53;;;;;;;4.00;2.90;;;6.10;67.60;;;;;;6038649;23;20390;-80
2022/04/02 07:45:28;;;;;;;1.00;0.80;;;6.10;67.90;;;;;;6063068;23;20383;-79
2022/04/02 07:47:57;;;;;;;1.40;1.08;;;6.20;66.80;;;;;;6063006;23;20363;-79
2022/04/02 07:50:26;;;;;;;13.95;8.60;;;6.20;67.50;;;;;;6063618;23;20866;-77
2022/04/02 07:52:55;;;;;;;42.00;24.60;;;6.10;67.50;;;;;;6063942;23;20371;-77
2022/04/02 07:55:24;;;;;;;63.07;40.27;;;6.00;69.40;;;;;;6063829;23;20484;-80
2022/04/02 07:57:52;;;;;;;68.25;50.22;;;5.80;71.60;;;;;;6063884;23;20387;-77
2022/04/02 08:00:22;;;;;;;33.15;24.60;;;5.80;72.60;;;;;;6063453;23;20752;-77
2022/04/02 08:02:50;;;;;;;6.15;4.63;;;5.80;74.30;;;;;;6038405;23;20379;-79
2022/04/02 08:05:21;;;;;;;18.40;16.30;;;5.90;74.60;;;;;;6039420;23;20390;-77
2022/04/02 08:07:54;;;;;;;18.60;16.70;;;5.90;74.60;;;;;;6063701;23;20382;-80
2022/04/02 08:10:24;;;;;;;6.10;5.37;;;5.90;74.80;;;;;;6039331;23;20468;-79
2022/04/02 08:12:54;;;;;;;7.13;6.50;;;6.00;74.90;;;;;;6064028;23;20408;-80
2022/04/02 08:15:22;;;;;;;19.90;16.98;;;6.00;75.20;;;;;;6063500;23;20458;-80
2022/04/02 08:17:55;;;;;;;24.75;20.70;;;6.00;75.60;;;;;;6038274;23;20697;-79
2022/04/02 08:20:25;;;;;;;6.53;5.47;;;6.00;76.10;;;;;;6064602;23;20890;-79
2022/04/02 08:22:55;;;;;;;3.28;1.98;;;6.00;77.00;;;;;;6062107;23;21015;-76
2022/04/02 08:25:23;;;;;;;2.38;1.75;;;6.10;77.30;;;;;;6064632;23;20383;-79
2022/04/02 08:28:12;;;;;;;3.77;3.27;;;6.20;77.30;;;;;;6061510;23;20443;-77
2022/04/02 08:30:47;;;;;;;4.93;4.50;;;6.10;76.50;;;;;;6037850;23;20382;-77
2022/04/02 08:33:42;;;;;;;3.47;2.90;;;6.00;76.80;;;;;;6063673;23;20383;-77
2022/04/02 08:36:49;;;;;;;3.97;3.60;;;6.10;77.30;;;;;;6063362;23;21141;-78
2022/04/02 08:39:35;;;;;;;7.07;6.15;;;6.10;77.10;;;;;;6062778;23;20466;-79
2022/04/02 08:42:29;;;;;;;1.73;1.30;;;6.20;77.30;;;;;;6061891;23;20430;-76
2022/04/02 08:45:10;;;;;;;2.53;1.37;;;6.30;77.20;;;;;;6063614;23;20387;-79
2022/04/02 08:48:09;;;;;;;2.85;0.70;;;6.40;77.20;;;;;;6064280;23;20398;-79
2022/04/02 08:50:41;;;;;;;2.33;0.90;;;6.50;75.60;;;;;;6062326;23;20439;-77
2022/04/02 08:53:31;;;;;;;2.75;0.80;;;6.50;74.50;;;;;;6063348;23;20383;-78
2022/04/02 08:56:03;;;;;;;2.08;0.60;;;6.50;72.90;;;;;;6062727;23;20942;-80
2022/04/02 08:59:08;;;;;;;2.80;0.60;;;6.50;72.50;;;;;;6063210;23;20383;-76
2022/04/02 09:02:02;;;;;;;2.73;0.57;;;6.50;72.40;;;;;;6004069;23;20539;-77
2022/04/02 09:05:06;;;;;;;2.20;0.60;;;6.50;72.50;;;;;;5980325;23;20442;-79
2022/04/02 09:08:11;;;;;;;2.90;0.60;;;6.50;73.50;;;;;;6058366;23;20438;-81
2022/04/02 09:11:12;;;;;;;2.47;0.80;;;6.30;72.90;;;;;;6003808;23;20413;-77
2022/04/02 09:13:49;;;;;;;4.45;0.70;;;6.50;72.70;;;;;;5982347;23;20478;-79
2022/04/02 09:16:40;;;;;;;4.70;0.80;;;6.50;73.30;;;;;;6027639;23;20412;-77
2022/04/02 09:19:14;;;;;;;5.38;1.08;;;6.60;71.80;;;;;;6065774;23;20449;-78
2022/04/02 09:21:59;;;;;;;6.03;1.00;;;6.70;71.90;;;;;;6040112;23;20383;-79
2022/04/02 09:25:01;;;;;;;5.75;1.08;;;6.80;70.90;;;;;;6063915;23;20900;-77
2022/04/02 09:27:47;;;;;;;4.97;1.40;;;6.70;71.30;;;;;;6005925;23;20790;-78
2022/04/02 09:30:39;;;;;;;3.03;0.90;;;6.80;71.30;;;;;;6035334;23;20467;-78
2022/04/02 09:33:24;;;;;;;3.95;0.95;;;6.90;71.70;;;;;;6063477;23;20438;-77
2022/04/02 09:36:08;;;;;;;6.03;1.40;;;6.90;71.20;;;;;;6040106;23;20439;-78
2022/04/02 09:38:44;;;;;;;2.95;1.02;;;7.10;71.00;;;;;;6064550;23;20383;-79
2022/04/02 09:41:22;;;;;;;5.35;1.10;;;6.90;70.60;;;;;;6062350;23;20463;-78
2022/04/02 09:44:27;;;;;;;3.45;1.27;;;7.00;71.00;;;;;;6063285;23;20387;-78
2022/04/02 09:47:04;;;;;;;4.20;1.17;;;7.20;70.80;;;;;;6063501;23;20462;-77
2022/04/02 09:50:00;;;;;;;7.93;3.63;;;7.40;70.60;;;;;;6063404;23;20879;-78
2022/04/02 09:52:32;;;;;;;8.02;4.82;;;7.50;70.30;;;;;;6051334;23;20379;-77
2022/04/02 09:55:12;;;;;;;3.85;1.10;;;7.70;68.80;;;;;;6064194;23;20438;-78
2022/04/02 09:57:45;;;;;;;4.30;0.88;;;7.30;67.80;;;;;;6063454;23;20379;-78
2022/04/02 10:00:16;;;;;;;3.83;0.90;;;7.30;68.20;;;;;;6040120;23;20386;-78
2022/04/02 10:02:54;;;;;;;3.92;1.60;;;7.70;68.50;;;;;;6063536;23;20387;-77
2022/04/02 10:05:31;;;;;;;3.30;0.70;;;7.90;65.90;;;;;;6063168;23;20514;-77
2022/04/02 10:08:11;;;;;;;2.28;1.02;;;8.00;64.10;;;;;;6064095;23;20387;-79
2022/04/02 10:10:41;;;;;;;3.85;1.00;;;7.90;65.30;;;;;;6063410;23;20383;-78
2022/04/02 10:13:08;;;;;;;2.80;1.30;;;8.10;65.40;;;;;;6064097;23;20955;-80
2022/04/02 10:15:40;;;;;;;2.78;1.00;;;8.50;64.10;;;;;;6063275;23;20442;-80
2022/04/02 10:18:11;;;;;;;3.05;1.30;;;8.90;62.50;;;;;;6061249;23;20446;-78
2022/04/02 10:20:44;;;;;;;3.83;1.45;;;9.20;63.40;;;;;;6062896;23;20772;-78
2022/04/02 10:23:29;;;;;;;2.25;0.98;;;9.80;62.10;;;;;;6064591;23;20387;-80
2022/04/02 10:26:23;;;;;;;3.83;1.60;;;10.50;60.60;;;;;;6063002;23;20406;-78
2022/04/02 10:28:55;;;;;;;2.10;1.60;;;10.00;58.60;;;;;;6062286;23;20458;-78
2022/04/02 10:31:35;;;;;;;2.72;1.88;;;9.50;60.10;;;;;;6064004;23;20393;-78
2022/04/02 10:34:43;;;;;;;2.60;1.55;;;9.50;61.10;;;;;;6063257;23;20470;-78
2022/04/02 10:37:15;;;;;;;2.05;1.10;;;9.60;59.50;;;;;;6064720;23;20818;-79
2022/04/02 10:40:04;;;;;;;2.10;1.00;;;10.10;62.20;;;;;;6063897;23;20540;-80
2022/04/02 10:42:42;;;;;;;1.50;1.00;;;10.40;60.00;;;;;;6062716;23;20391;-78
2022/04/02 10:45:12;;;;;;;2.78;1.10;;;10.50;58.40;;;;;;6064355;23;20383;-77
2022/04/02 10:48:09;;;;;;;2.03;1.03;;;10.40;56.80;;;;;;6063430;23;20430;-80
2022/04/02 10:50:37;;;;;;;1.90;1.08;;;10.20;57.10;;;;;;6058940;23;20481;-78
2022/04/02 10:53:09;;;;;;;1.50;0.93;;;10.30;58.00;;;;;;6063864;23;20427;-77
2022/04/02 10:55:43;;;;;;;1.85;1.05;;;9.60;58.70;;;;;;6063134;23;20375;-77
2022/04/02 10:58:12;;;;;;;2.67;0.87;;;9.50;58.10;;;;;;6063909;23;20411;-80
2022/04/02 11:00:45;;;;;;;3.10;0.85;;;9.50;60.90;;;;;;6063097;23;20389;-78
2022/04/02 11:03:23;;;;;;;3.15;1.00;;;9.90;59.20;;;;;;6064098;23;20379;-78
2022/04/02 11:05:51;;;;;;;2.25;1.23;;;10.10;58.50;;;;;;6062914;23;20801;-80
2022/04/02 11:08:24;;;;;;;3.17;1.10;;;10.10;59.60;;;;;;6063805;23;20431;-78
2022/04/02 11:10:51;;;;;;;3.28;1.30;;;9.90;58.50;;;;;;6063310;23;20434;-78
2022/04/02 11:13:32;;;;;;;1.67;1.00;;;10.10;58.60;;;;;;6065020;23;20863;-78
2022/04/02 11:16:00;;;;;;;2.03;1.60;;;10.10;57.90;;;;;;6061211;23;21158;-79
2022/04/02 11:18:27;;;;;;;2.50;1.17;;;10.20;58.80;;;;;;6039361;23;20415;-80
2022/04/02 11:21:04;;;;;;;1.63;1.25;;;10.20;58.50;;;;;;6062096;23;20375;-78
2022/04/02 11:24:10;;;;;;;1.90;1.30;;;10.00;58.60;;;;;;6063130;23;20387;-78
2022/04/02 11:26:42;;;;;;;1.73;1.20;;;10.30;57.80;;;;;;6043114;23;20458;-80
2022/04/02 11:29:13;;;;;;;2.25;1.13;;;10.40;56.30;;;;;;6062831;23;20884;-78
2022/04/02 11:31:46;;;;;;;2.83;1.70;;;10.50;57.10;;;;;;6061582;23;20448;-79
2022/04/02 11:34:19;;;;;;;1.65;1.25;;;10.30;56.70;;;;;;6062472;23;20689;-79
2022/04/02 11:36:47;;;;;;;2.40;1.20;;;9.90;57.10;;;;;;6063021;23;20367;-78
2022/04/02 11:39:49;;;;;;;1.67;1.25;;;10.10;57.30;;;;;;6051132;23;20435;-81
2022/04/02 11:42:22;;;;;;;2.17;1.30;;;10.00;57.40;;;;;;6054244;23;20379;-80
2022/04/02 11:44:53;;;;;;;2.50;1.50;;;9.90;57.10;;;;;;6063299;23;20383;-78
2022/04/02 11:47:28;;;;;;;1.25;1.15;;;10.00;57.80;;;;;;6062939;23;21243;-77
2022/04/02 11:50:04;;;;;;;3.50;2.10;;;9.90;56.40;;;;;;6063125;23;20390;-78
2022/04/02 11:52:52;;;;;;;2.97;1.20;;;9.70;59.60;;;;;;6063184;23;20974;-80
2022/04/02 11:55:19;;;;;;;2.92;1.55;;;9.90;58.30;;;;;;6062725;23;20394;-78
2022/04/02 11:57:59;;;;;;;2.03;1.45;;;9.80;57.00;;;;;;6063715;23;20760;-78
2022/04/02 12:00:29;;;;;;;1.92;1.55;;;10.00;57.10;;;;;;6038653;23;20383;-80
2022/04/02 12:02:56;;;;;;;1.45;1.33;;;10.00;56.00;;;;;;6062955;23;20419;-77
2022/04/02 12:05:40;;;;;;;2.17;1.40;;;9.90;56.90;;;;;;6061362;23;20389;-78
2022/04/02 12:08:07;;;;;;;2.75;1.38;;;10.00;56.80;;;;;;6063461;23;20386;-77
2022/04/02 12:10:47;;;;;;;2.83;1.27;;;9.80;58.10;;;;;;6063662;23;20407;-77
2022/04/02 12:13:16;;;;;;;2.80;1.60;;;10.00;57.90;;;;;;6062146;23;20894;-77
2022/04/02 12:16:05;;;;;;;4.43;2.22;;;10.10;57.30;;;;;;6061940;23;20375;-76
2022/04/02 12:18:33;;;;;;;2.97;1.30;;;9.90;54.60;;;;;;6061651;23;20435;-78
2022/04/02 12:21:07;;;;;;;2.30;1.15;;;9.80;56.20;;;;;;6063172;23;20379;-79
2022/04/02 12:23:37;;;;;;;2.80;1.43;;;10.00;57.00;;;;;;6062045;23;20439;-78
2022/04/02 12:26:04;;;;;;;2.10;1.60;;;10.10;57.60;;;;;;6063746;23;20445;-77
2022/04/02 12:28:44;;;;;;;2.03;1.20;;;10.00;57.40;;;;;;6061395;23;20391;-79
2022/04/02 12:31:12;;;;;;;2.53;1.50;;;10.20;57.40;;;;;;6064286;23;20387;-78
2022/04/02 12:33:39;;;;;;;1.98;1.25;;;10.10;56.80;;;;;;6061045;23;20379;-77
2022/04/02 12:36:08;;;;;;;2.83;1.50;;;10.10;57.20;;;;;;6064274;23;20380;-77
2022/04/02 12:38:37;;;;;;;2.38;1.60;;;10.00;56.80;;;;;;6061510;23;20466;-79
2022/04/02 12:41:26;;;;;;;2.07;1.17;;;10.00;57.90;;;;;;6064148;23;20501;-78
2022/04/02 12:43:59;;;;;;;2.95;1.55;;;10.00;56.50;;;;;;6048210;23;20375;-77
2022/04/02 12:46:29;;;;;;;1.83;1.37;;;9.90;56.10;;;;;;6041120;23;20421;-79
2022/04/02 12:48:58;;;;;;;2.20;1.20;;;9.90;56.10;;;;;;6064298;23;20891;-77
2022/04/02 12:51:25;;;;;;;2.00;1.50;;;10.00;55.40;;;;;;6065727;23;20383;-78
2022/04/02 12:54:01;;;;;;;2.35;1.42;;;10.10;56.30;;;;;;6063027;23;20420;-78
2022/04/02 12:56:31;;;;;;;2.30;1.30;;;10.00;55.90;;;;;;6065430;23;20379;-77
2022/04/02 12:59:00;;;;;;;3.67;1.60;;;10.10;55.30;;;;;;6063641;23;20379;-77
2022/04/02 13:01:35;;;;;;;1.50;1.08;;;10.10;55.70;;;;;;6065523;23;20389;-79
2022/04/02 13:04:08;;;;;;;2.05;1.38;;;10.10;55.10;;;;;;6040519;23;20383;-77
2022/04/02 13:06:39;;;;;;;2.80;1.57;;;9.90;55.40;;;;;;6064469;23;20387;-77
2022/04/02 13:09:14;;;;;;;1.63;1.23;;;10.00;55.50;;;;;;6064096;23;20379;-79
2022/04/02 13:11:52;;;;;;;1.60;1.08;;;10.10;55.20;;;;;;6063868;23;20383;-77
2022/04/02 13:14:21;;;;;;;2.60;1.85;;;10.10;55.30;;;;;;6065642;23;20446;-78
2022/04/02 13:16:52;;;;;;;2.15;1.67;;;10.20;56.70;;;;;;6065560;23;20387;-77
2022/04/02 13:22:13;;;;;;;2.00;1.40;;;10.00;55.40;;;;;;6064784;23;20525;-77
2022/04/02 13:24:59;;;;;;;1.85;1.27;;;10.10;56.60;;;;;;6065049;23;20462;-78